Thomas Williams

Recruteur en chef - Southampton
20 Janv 2028
Jeudi
Processus

Personnalité

Adaptabilité (6) Ambition (1) Controverse (4) Loyauté (2) Pression (15) Professionnalisme (8) Sportivité (12) Tempérament (1)

Profil

Style d'entraînement Démocratique
Diplôme Continental A
Détermination 5
Gestion des joueurs 8
Motivation 13
Discipline 13
Satisfaction professionnelle
100%
Fatigue
0%
Rôle Recruteur en chef
Salaire 37.1K p/s
Contrat 14.03.2028

Performance

Comportement Bon
Efficacité de l'entraînement
48%
Développement des joueurs
65%
Prévention des blessures
35%
Mise en place tactique
60%

Événements récents

Négociation de contrat entamée maintenant
En formation continue maintenant
A évalué un joueur maintenant
A participé à une réunion de recrutement maintenant
A participé à une réunion de recrutement maintenant
A recommandé une cible de transfert maintenant
Négociation de contrat entamée maintenant
En formation continue maintenant

Suivi en cours

215
Joueur Club Statut Capacité Confiance Observé Dernière observation Dernier vote
Christos Mouzakitis Hull City Actif 141 / 138 40% 18 17.01.2028 -
Ayden Heaven Luton Town Actif 151 / 163 40% 7 17.01.2028 -
Josh Nichols Tranmere Rovers Actif 117 / 122 40% 7 17.01.2028 -
Jake Bidwell Accrington Stanley Perdu 117 / 116 83% 1 06.01.2028 -
Martim Cunha Porto Actif 104 / 125 40% 9 05.01.2028 -
Daniel Banjaqui Benfica Actif 118 / 126 40% 6 05.01.2028 -
Mauro Carrizo Atlético Tucumán Actif 99 / 91 40% 1 05.01.2028 -
Vasilije Novičić IMT Actif 97 / 97 40% 1 05.01.2028 -
Darryl Bakola Padova Actif 115 / 119 40% 4 03.01.2028 -
Jovan Milosavljević Kalmar FF Actif 106 / 121 40% 2 03.01.2028 -
Joe Johnson Barnet Actif 108 / 125 40% 1 03.01.2028 -
Jan Bürger Gillingham Actif 115 / 140 40% 7 02.01.2028 -
Olivier Mambwa Young Boys Actif 108 / 117 40% 5 02.01.2028 -
Mao Hosoya Everton Négociation 134 / 135 90% 1 01.01.2028 -
Felipe Obradovich Ferro Carril Oeste Actif 110 / 102 40% 5 31.12.2027 -
Giovanni Leoni Bradford City Actif 140 / 149 40% 3 31.12.2027 -
Dmitry Pestryakov Dinamo Moscow Actif 116 / 126 40% 5 30.12.2027 -
Avery Appiah Ajax Actif 117 / 112 40% 2 30.12.2027 -
Mikkel Hope Haugesund Actif 102 / 109 40% 6 28.12.2027 -
Alejandro Almaraz Nueva Chicago Actif 107 / 118 40% 5 28.12.2027 -
Narcis Ilaş CFR Cluj Actif 116 / 102 40% 2 28.12.2027 -
Caleb Yirenkyi Coventry City Actif 146 / 140 40% 14 27.12.2027 -
Fillip Jenssen Riise Stabaek Actif 103 / 123 40% 4 26.12.2027 -
Jorthy Mokio ADO Den Haag Actif 129 / 131 40% 1 26.12.2027 -
Josh King Chelsea Actif 142 / 161 40% 12 24.12.2027 -
Jofre Torrents Ajax Actif 127 / 137 40% 15 23.12.2027 -
Rivaldo Grobler Free State Stars Actif 102 / 99 40% 5 23.12.2027 -
Gopolang Taunyane CR Belouizdad Actif 102 / 104 40% 2 18.12.2027 -
Harrison Armstrong Everton Actif 138 / 147 40% 3 18.12.2027 -
Juan Giménez Celta Actif 123 / 128 40% 1 17.12.2027 -
Trey Nyoni Rotherham United Actif 135 / 138 40% 3 16.12.2027 -
Hervin Goyes Deportivo Pasto Actif 111 / 123 40% 8 15.12.2027 -
Archie Gray Derby County Actif 153 / 144 40% 7 15.12.2027 -
Bahia Criciuma Actif 115 / 110 40% 5 14.12.2027 -
Agustín Obregón River Plate Actif 110 / 118 40% 3 10.12.2027 -
Joel McGregor Swindon Town Actif 101 / 101 40% 5 09.12.2027 -
Tiago Parente Benfica Actif 109 / 124 40% 6 09.12.2027 -
Esquerdinha Shrewsbury Town Actif 115 / 118 40% 3 09.12.2027 -
Tobias Moi Bodo/Glimt Actif 104 / 113 40% 3 08.12.2027 -
Gonçalo Oliveira Benfica Actif 120 / 126 40% 1 07.12.2027 -
Jorrel Hato Chelsea Actif 157 / 166 40% 5 06.12.2027 -
Kieran Morgan Queens Park Rangers Actif 124 / 130 40% 5 06.12.2027 -
Noahkai Banks Hamburger SV Actif 138 / 150 40% 1 06.12.2027 -
Nicolas Sport Recife Actif 101 / 94 40% 2 04.12.2027 -
Khalis Merah Toulouse FC Actif 128 / 127 40% 1 04.12.2027 -
Juan Morán Godoy Cruz Actif 102 / 130 40% 6 02.12.2027 -
Myles Lewis-Skelly Birmingham Actif 157 / 152 40% 7 01.12.2027 -
Bradley de Jesus Tondela Actif 104 / 108 40% 2 30.11.2027 -
Ronan Kpakio Cardiff City Actif 118 / 125 40% 7 27.11.2027 -
Dylan Gorosito Villarreal Actif 122 / 120 40% 1 26.11.2027 -
Aleko Basiladze Slovan Liberec Actif 115 / 98 40% 1 25.11.2027 -
Jonny Shore New York City Actif 94 / 89 40% 1 25.11.2027 -
Nazareno Roselli Defensa y Justicia Actif 115 / 123 40% 2 24.11.2027 -
Nejc Viher NK Maribor Actif 116 / 131 40% 2 24.11.2027 -
Julián Bazán Philadelphia Union Actif 113 / 100 40% 8 19.11.2027 -
Harbor Miller LA Galaxy Actif 98 / 115 40% 2 15.11.2027 -
Frankie Westfield Philadelphia Union Actif 111 / 101 40% 4 11.11.2027 -
Tiago Freitas Benfica Actif 117 / 123 40% 6 10.11.2027 -
Ernie Weaver AFC Wimbledon Actif 113 / 107 40% 7 10.11.2027 -
Veljko Milosavljević Aston Villa Actif 140 / 156 40% 2 06.11.2027 -
Luka Vušković Manchester United Actif 149 / 156 40% 2 04.11.2027 -
Malick Yalcouyé Brighton Actif 133 / 140 40% 2 26.10.2027 -
Juma Bah Manchester City Actif 126 / 135 40% 1 26.10.2027 -
Celías Ingenthron Vélez Actif 111 / 133 40% 2 20.10.2027 -
Jens Hjertø-Dahl Hull City Actif 124 / 123 40% 3 17.10.2027 -
Teo Rodríguez Pagano River Plate Actif 116 / 125 40% 1 30.09.2027 -
Johan Manzambi Newcastle United Actif 141 / 136 40% 5 29.09.2027 -
Ulises Giménez River Plate Actif 106 / 128 40% 1 29.09.2027 -
Kaick Minnesota United FC Actif 104 / 115 40% 3 25.09.2027 -
Christ Inao Oulaï Fiorentina Actif 135 / 156 40% 6 22.09.2027 -
Pablo Aguiar Independiente Actif 102 / 112 40% 1 22.09.2027 -
Martín Jiménez Audax Italiano Actif 101 / 100 40% 2 21.09.2027 -
Souza Tottenham Actif 131 / 138 40% 1 18.09.2027 -
Benjamin Arthur Brentford Actif 123 / 117 40% 1 11.09.2027 -
Adam Aznou Everton Actif 126 / 117 40% 1 09.09.2027 -
Zach Abbott Nottingham Forest Actif 118 / 128 40% 1 09.09.2027 -
Santiago Espíndola River Plate Actif 102 / 138 40% 1 09.09.2027 -
Elkin Rivero Atletico Nacional Actif 103 / 129 40% 1 07.09.2027 -
Oscar Otero Atletico Venezuela Actif 104 / 99 40% 1 31.08.2027 -
Ismail Al Suwaidi Al Fujairah Actif 130 / 128 40% 1 31.08.2027 -
Noah Streit CF Montreal Actif 108 / 122 40% 1 31.08.2027 -
Adrián Bernabé Parma Actif 140 / 146 40% 1 17.08.2027 -
Nicolò Bertola Udinese Actif 146 / 141 40% 1 17.08.2027 -
James Garner Everton Actif 155 / 161 40% 1 26.07.2027 -
Jacob Greaves Ipswich Town Actif 137 / 131 40% 1 26.07.2027 -
Tyler Adams Bournemouth Actif 155 / 144 40% 1 26.07.2027 -
Leif Davis Ipswich Town Actif 139 / 141 40% 1 06.07.2027 -
Ousmane Diomande Nottingham Forest Actif 159 / 148 40% 1 06.07.2027 -
Saša Lukić Ipswich Town Actif 146 / 143 40% 1 06.07.2027 -
Dion Beljo Standard Liege Négociation 131 / 132 66% 1 01.06.2027 -
Adam Bakoune Ospitaletto Actif 98 / 90 40% 4 31.05.2027 -
Valentin Atangana Al-Ahli Actif 133 / 120 40% 2 31.05.2027 -
Kazunari Kita Real Sociedad Actif 97 / 99 40% 5 30.05.2027 -
Keagan Phiri Platinum Stars Actif 100 / 103 40% 9 30.05.2027 -
Keagan Tau Ajax Cape Town Actif 92 / 110 40% 4 30.05.2027 -
Davide Bartesaghi AC Milan Actif 131 / 148 40% 6 29.05.2027 -
Riley Owen Trento Actif 104 / 113 40% 4 29.05.2027 -
Sascha Britschgi Padova Actif 118 / 120 40% 8 28.05.2027 -
Zaïd BafdilI Sporting CP Actif 88 / 101 40% 1 26.05.2027 -
Dylan Lawlor Cardiff City Actif 117 / 113 40% 7 22.05.2027 -
Finley McAllister Grimsby Town Actif 93 / 103 40% 3 22.05.2027 -
Joel Ezra Enyimba Actif 88 / 93 40% 2 22.05.2027 -
Daniel Costa Sporting CP Actif 96 / 92 40% 4 20.05.2027 -
Eddy Kouadio Crotone Actif 103 / 113 40% 1 18.05.2027 -
Percy Jali Free State Stars Actif 96 / 111 40% 11 16.05.2027 -
Lewis Miley Chelsea Actif 148 / 135 40% 1 16.05.2027 -
Daniel Dennis Ikorodu City Actif 88 / 95 40% 1 11.05.2027 -
Hlompho Lorch Ajax Cape Town Actif 98 / 108 40% 5 10.05.2027 -
Matías Gómez Granada Actif 112 / 112 40% 3 09.05.2027 -
Zane Albarus Cambridge United Actif 92 / 89 40% 3 09.05.2027 -
Olaniyi Saheed Kwara United Actif 94 / 106 40% 2 07.05.2027 -
Matvey Kislyak CSKA Moscow Actif 141 / 158 40% 3 05.05.2027 -
Leonardo Mendicino Bari Actif 110 / 135 40% 1 02.05.2027 -
Daniel Kelly Oxford United Actif 108 / 109 40% 3 27.04.2027 -
Bernardo Lima Porto Actif 95 / 108 40% 7 26.04.2027 -
Eduardo Felicíssimo Sporting CP Actif 107 / 117 40% 1 25.04.2027 -
Ronwen Phiri Platinum Stars Actif 99 / 94 40% 3 19.04.2027 -
Tobias Slotsager Casertana Actif 110 / 104 40% 1 12.04.2027 -
James Dornelly Peterborough United Actif 107 / 109 40% 9 31.03.2027 -
David Ozoh Derby County Actif 121 / 128 40% 6 28.03.2027 -
Hamish Douglas Grimsby Town Actif 98 / 89 40% 3 25.03.2027 -
Leandro Martins Benfica Actif 93 / 86 40% 1 25.03.2027 -
Cemran Dansin Orlando Pirates Actif 107 / 103 40% 6 22.03.2027 -
Jack Hinshelwood Brighton Actif 143 / 140 40% 3 17.02.2027 -
Simphiwe Selepe Orlando Pirates Actif 113 / 122 40% 2 13.02.2027 -
Taras Mykhavko Dynamo Kyiv Actif 130 / 139 40% 1 13.02.2027 -
Daniel Vernattus Metalist Actif 84 / 100 40% 2 09.02.2027 -
Tyler Fredricson Oldham Athletic Actif 107 / 97 40% 1 09.02.2027 -
Denys Smetana Nyva Actif 94 / 99 40% 1 06.02.2027 -
Marquinhos Spartak Moscow Actif 131 / 141 40% 2 25.01.2027 -
Liam Thompson Mansfield Town Actif 114 / 110 83% 1 25.01.2027 -
Callum Hudson-Odoi Nottingham Forest Actif 147 / 160 40% 1 25.01.2027 -
Joe Gelhardt Hull City Actif 136 / 129 40% 1 25.01.2027 -
Stanislav Agkatsev Sunderland Négociation 132 / 133 66% 1 01.01.2027 -
Etiosa Ighodaro Kaizer Chiefs Actif 107 / 102 40% 4 29.12.2026 -
Giacomo Raspadori Atalanta Actif 150 / 139 40% 3 29.12.2026 -
Armando Broja Burnley Actif 138 / 137 40% 3 28.12.2026 -
Themba Ngcobo SuperSport United Actif 116 / 119 40% 5 28.12.2026 -
Ilyas Ansah Hull City Actif 130 / 134 40% 2 27.12.2026 -
Dom Ballard Leyton Orient Actif 122 / 120 40% 2 27.12.2026 -
Brayan León Mamelodi Sundowns Actif 116 / 125 40% 3 27.12.2026 -
Assane Diao Lazio Actif 146 / 148 40% 3 25.12.2026 -
Richard Koné Queens Park Rangers Actif 120 / 114 40% 2 25.12.2026 -
Leonardo Campana New England Revolution Actif 132 / 134 40% 1 24.12.2026 -
Yeremy Pino Crystal Palace Actif 152 / 147 40% 1 24.12.2026 -
Tomáš Rigo Stoke City Actif 128 / 134 40% 1 24.12.2026 -
Kenan Dervišagić Floriana Actif 103 / 102 40% 2 22.12.2026 -
Mathias Jørgensen Blackburn Rovers Actif 116 / 106 40% 1 21.12.2026 -
Jack Rudoni Coventry City Actif 136 / 148 40% 1 21.12.2026 -
Scott Twine Bristol City Actif 125 / 117 40% 1 20.12.2026 -
Isaiah Jones Luton Town Actif 122 / 127 40% 1 20.12.2026 -
Thiago Brentford Actif 147 / 153 40% 3 19.12.2026 -
Tom Cannon Sheffield United Actif 124 / 140 40% 1 16.12.2026 -
Aune Heggebø West Bromwich Albion Actif 123 / 132 40% 1 16.12.2026 -
Yousef Salech Cardiff City Actif 126 / 125 40% 2 15.12.2026 -
Yeangel Montero Naxxar Lions Actif 102 / 105 40% 2 14.12.2026 -
Wilson Isidor Sunderland Actif 136 / 133 40% 1 14.12.2026 -
Dejan Joveljić Seattle Sounders Actif 133 / 133 40% 2 13.12.2026 -
Carlos Vicente Birmingham Actif 142 / 144 40% 1 13.12.2026 Plus d'infos
Reda Khadra Qarabag Actif 125 / 115 40% 1 13.12.2026 -
Ruben van Bommel Ferencvaros Actif 127 / 139 40% 2 12.12.2026 -
Tomás Chancalay Minnesota United FC Actif 120 / 121 40% 1 12.12.2026 -
Tyrese Campbell Sheffield United Actif 131 / 134 40% 2 10.12.2026 -
Will Lankshear Middlesbrough Actif 125 / 127 40% 1 10.12.2026 -
Georginio Rutter Brighton Actif 142 / 147 40% 2 09.12.2026 -
Nathan Ordaz Metalist Actif 114 / 118 40% 2 08.12.2026 -
Yehor Yarmoliuk Brentford Actif 147 / 142 40% 2 08.12.2026 -
Luis Vázquez Birmingham Actif 127 / 122 40% 2 07.12.2026 -
Evidence Makgopa Orlando Pirates Actif 119 / 110 40% 1 07.12.2026 -
Oswin Appollis Orlando Pirates Actif 125 / 113 40% 2 06.12.2026 -
Facundo Mura Inter Miami CF Actif 130 / 130 40% 1 06.12.2026 -
Petar Stanić Ludogorets Actif 137 / 144 40% 1 06.12.2026 -
Bénie Traoré New York City Actif 128 / 145 40% 2 04.12.2026 -
Robert Mizo Ashanti Gold Actif 102 / 110 40% 2 04.12.2026 -
Wessam Abou Ali Columbus Crew Actif 129 / 146 40% 1 04.12.2026 -
Prince Ukachukwu Sumgayit Actif 100 / 115 40% 1 01.12.2026 -
Marcelo Allende Mamelodi Sundowns Actif 135 / 121 40% 3 30.11.2026 -
Zeki Amdouni Burnley Actif 132 / 122 40% 1 25.11.2026 -
Mats Wieffer Brighton Actif 150 / 135 40% 1 25.11.2026 -
Xavi Simons Tottenham Actif 151 / 157 40% 1 24.11.2026 -
Duncan McGuire Houston Dynamo Actif 121 / 130 40% 1 20.11.2026 -
Ibrahim Aliyu Houston Dynamo Actif 125 / 111 40% 1 17.11.2026 -
Kwame Opoku Asante Kotoko Actif 99 / 103 40% 1 17.11.2026 -
Bryan Ramírez FC Cincinnati Actif 121 / 109 40% 1 17.11.2026 -
Noni Madueke Arsenal Actif 150 / 155 40% 1 17.11.2026 -
Dango Ouattara Brentford Actif 150 / 140 40% 1 13.11.2026 -
Emmanuel Mathias Ikorodu City Actif 98 / 106 40% 1 12.11.2026 -
Tyreece Simpson Maritzburg United Actif 83 / 75 40% 1 12.11.2026 -
Gonzalo Fulham Actif 145 / 135 40% 1 11.11.2026 -
Mandla Mahlangu Ajax Cape Town Actif 112 / 96 40% 1 06.11.2026 -
Derensili Sanches Fernandes Huddersfield Town Actif 123 / 130 40% 1 06.11.2026 -
Iván Angulo Orlando City Actif 122 / 140 40% 1 06.11.2026 -
Gabriel Pirani San Diego Football Club Actif 125 / 119 40% 1 05.11.2026 -
Kimito Nono Sanfrecce Hiroshima Actif 130 / 109 40% 1 05.11.2026 -
Tadeo Allende Inter Miami CF Actif 119 / 123 40% 1 03.11.2026 -
Brooklyn Raines New England Revolution Actif 103 / 134 40% 1 20.10.2026 -
Stanley Joseph Remo Stars Actif 82 / 90 40% 1 18.10.2026 -
Mandla Erasmus SuperSport United Actif 122 / 127 40% 2 17.10.2026 -
Mateo Mendoza Godoy Cruz Actif 121 / 122 40% 1 17.10.2026 -
Mauricio Amaro Atlanta United FC Actif 129 / 133 40% 3 16.10.2026 -
El Hadji Malick Diouf Brentford Actif 144 / 130 40% 1 16.10.2026 -
Kyriani Sabbe Club Brugge Actif 117 / 114 40% 1 12.10.2026 -
Mbekezeli Mbokazi Chicago Fire Actif 130 / 108 40% 1 12.10.2026 -
Elías Báez Atlanta United FC Actif 122 / 145 40% 1 11.10.2026 -
Furkan Demir Rapid Wien Actif 124 / 124 40% 1 11.10.2026 -
Isaac Kyereh Liberty Professionals Actif 112 / 107 40% 1 07.10.2026 -
Morrison Agyemang Charlotte Football Club Actif 116 / 118 40% 1 06.10.2026 -
Reed Baker-Whiting Nashville SC Actif 96 / 117 40% 1 06.10.2026 -
Gift Udoh Ikorodu City Actif 81 / 102 40% 1 05.10.2026 -
Chibueze Oputa Rangers International Actif 85 / 104 40% 1 05.10.2026 -
Pedro Soma San Diego Football Club Actif 103 / 126 40% 1 05.10.2026 -
Yahaya Ibrahim Plateau United Actif 83 / 98 40% 1 03.09.2026 -
Ignacio Perruzzi San Lorenzo Actif 117 / 149 40% 1 03.09.2026 -
Rafael Mosquera New York Red Bulls Actif 78 / 109 40% 1 01.08.2026 -
Eddy Davis Philadelphia Union Actif 85 / 118 40% 1 01.08.2026 -